Strona główna
METAR-TAF:

METAR-TAF

Lotnisko :

Port lotniczy Udon Thani

Udon Thani, Tajlandia

Szerokość geograficzna: 17-23N, Długość geograficzna: 102-48E, wysokość: 177 m

Aktualna obserwacja pogody

Raport powstał 1 godzina i 11 minut temu, godzina 07:00 UTC
Wiatr 8 kt od północny wschód, zmienny między północno-północny zachód i wschodnio-południowy wschód
Temperatura 31°C
Wilgotność 36%
Ciśnienie 1019 hPa
Widzialność 10 km lub więcej
Rozproszone chmury na wysokości 4000 ft

METAR: VTUD 220700Z 05008KT 340V110 9999 SCT040 31/14 Q1019 NOSIG

czas: 15:11 (08:11 UTC)

Prognoza

Raport powstał 3 godziny i 11 minut temu, godzina 05:00 UTC
Prognoza ważna od 22 godzina 06 UTC do 23 godzina 06 UTC
Wiatr 12 kt od wschodnio-północny wschód
Widzialność 10 km lub więcej
Mało chmury na wysokości 3000 ft

TAF: VTUD 220500Z 2206/2306 06012KT 9999 FEW030

Obserwacja i prognoza pogody dla ponad 4000 lotnisk (raport METAR i TAF).

Dostępne stacje oznaczono żółtymi i czerwonymi punktami na mapie.

Najedź kursorem aby zobaczyć nazwę stacji.

Kliknij aby zobaczyć obserwacje i prognozy pogody.

Aby zmienić mapę: kliknij na zielony przycisk z czarnym krzyżykiem, aby powiększyć; na zielony przycisk z myślnikiem, aby pomniejszyć; na zielone strzałki, aby przejść do map sąsiednich.


METAR-TAF: